Time;durP1;ratioP1;P1;durP2;ratioP2;P2;SDS_P1;SDS_P2;PMS_P1;PMS_P2;Temp;Humidity;BMP_temperature;BMP_pressure;BME280_temperature;BME280_humidity;BME280_pressure;Samples;Min_cycle;Max_cycle;Signal;HPM_P1;HPM_P2
2023/08/08 00:00:09;;;;;;;5.23;2.37;;;;;;;12.07;100.00;101367.94;4976748;28;20022;-90
2023/08/08 00:02:34;;;;;;;3.72;2.50;;;;;;;12.04;100.00;101370.34;4993070;28;20033;-90
2023/08/08 00:05:00;;;;;;;6.47;2.60;;;;;;;12.07;100.00;101369.81;4993700;28;20038;-90
2023/08/08 00:07:26;;;;;;;7.77;2.80;;;;;;;12.00;100.00;101367.34;4992727;28;20106;-89
2023/08/08 00:09:51;;;;;;;5.18;2.40;;;;;;;11.94;100.00;101365.66;4995095;28;20022;-89
2023/08/08 00:12:16;;;;;;;5.53;2.53;;;;;;;11.87;100.00;101365.03;4993944;28;20030;-89
2023/08/08 00:14:42;;;;;;;6.63;2.83;;;;;;;11.99;100.00;101372.97;4994327;28;20385;-89
2023/08/08 00:17:07;;;;;;;5.97;2.60;;;;;;;12.02;100.00;101377.84;4991165;28;20789;-89
2023/08/08 00:19:32;;;;;;;7.23;2.53;;;;;;;12.01;100.00;101368.97;4976275;28;20029;-89
2023/08/08 00:21:58;;;;;;;5.17;2.53;;;;;;;12.04;100.00;101368.47;4993674;28;20031;-90
2023/08/08 00:24:23;;;;;;;5.17;2.70;;;;;;;12.09;100.00;101371.19;4993982;28;20109;-89
2023/08/08 00:26:48;;;;;;;5.97;2.40;;;;;;;12.21;100.00;101378.28;4997572;28;20073;-88
2023/08/08 00:29:14;;;;;;;4.03;2.70;;;;;;;12.21;100.00;101372.91;5012447;28;20038;-89
2023/08/08 00:31:39;;;;;;;5.87;2.50;;;;;;;12.30;100.00;101378.63;4993624;28;20054;-90
2023/08/08 00:34:05;;;;;;;4.97;2.70;;;;;;;12.34;100.00;101375.16;4988420;28;20050;-89
2023/08/08 00:36:30;;;;;;;7.30;2.47;;;;;;;12.48;100.00;101377.44;5005535;28;20377;-90
2023/08/08 00:38:55;;;;;;;5.95;2.50;;;;;;;12.44;100.00;101363.69;4977476;28;20018;-90
2023/08/08 00:41:21;;;;;;;8.57;2.57;;;;;;;12.45;100.00;101353.75;4994885;28;20493;-89
2023/08/08 00:43:46;;;;;;;6.53;2.47;;;;;;;12.48;100.00;101370.16;4993809;28;20485;-89
2023/08/08 00:46:12;;;;;;;4.63;2.47;;;;;;;12.49;100.00;101349.50;4993673;28;20062;-89
2023/08/08 00:48:37;;;;;;;6.10;2.77;;;;;;;12.55;100.00;101356.50;4994172;28;20390;-89
2023/08/08 00:51:03;;;;;;;4.67;2.63;;;;;;;12.57;100.00;101357.88;4993004;28;20030;-90
2023/08/08 00:53:31;;;;;;;8.55;2.75;;;;;;;12.65;100.00;101358.47;4976380;28;20023;-90
2023/08/08 00:55:57;;;;;;;7.13;2.73;;;;;;;12.72;100.00;101359.06;4973891;28;20031;-89
2023/08/08 00:58:23;;;;;;;8.68;2.63;;;;;;;12.70;100.00;101347.75;4973929;28;20113;-89
2023/08/08 01:00:49;;;;;;;4.75;2.13;;;;;;;12.76;100.00;101352.09;4974392;28;20641;-89
2023/08/08 01:03:14;;;;;;;4.10;2.87;;;;;;;12.71;100.00;101346.69;4993206;28;20556;-89
2023/08/08 01:05:49;;;;;;;8.93;2.63;;;;;;;12.80;100.00;101360.44;4991575;28;20065;-89
2023/08/08 01:08:19;;;;;;;5.63;2.50;;;;;;;12.75;100.00;101363.91;4992531;28;20336;-89
2023/08/08 01:10:44;;;;;;;9.55;2.53;;;;;;;12.82;100.00;101361.00;4992314;28;20072;-89
2023/08/08 01:13:19;;;;;;;4.73;2.57;;;;;;;12.83;100.00;101355.34;4991960;28;20042;-90
2023/08/08 01:15:46;;;;;;;6.47;2.77;;;;;;;12.91;100.00;101370.19;4991773;28;20584;-89
2023/08/08 01:18:14;;;;;;;6.50;2.50;;;;;;;12.90;100.00;101359.69;4991301;28;20410;-89
2023/08/08 01:20:40;;;;;;;8.98;2.30;;;;;;;12.87;100.00;101359.13;4975683;28;20281;-89
2023/08/08 01:23:27;;;;;;;8.43;2.65;;;;;;;12.96;100.00;101362.16;4993397;28;20023;-89
2023/08/08 01:25:53;;;;;;;5.45;2.70;;;;;;;12.84;100.00;101346.22;4991607;28;20395;-89
2023/08/08 01:28:22;;;;;;;6.63;2.50;;;;;;;12.86;100.00;101340.59;4992550;28;20026;-89
2023/08/08 01:30:48;;;;;;;7.40;2.50;;;;;;;12.83;100.00;101336.53;4990797;28;20026;-89
2023/08/08 01:33:13;;;;;;;5.70;2.57;;;;;;;12.90;100.00;101355.09;4980647;28;20128;-89
2023/08/08 01:35:41;;;;;;;5.97;2.67;;;;;;;12.89;100.00;101361.56;4991815;28;20497;-89
2023/08/08 01:38:22;;;;;;;9.85;2.90;;;;;;;12.88;100.00;101351.88;4991974;28;20385;-89
2023/08/08 01:40:47;;;;;;;6.40;2.50;;;;;;;12.93;100.00;101357.28;4973325;28;20443;-89
2023/08/08 01:43:15;;;;;;;8.63;2.70;;;;;;;12.93;100.00;101351.09;4973244;28;20077;-89
2023/08/08 01:45:41;;;;;;;6.97;2.38;;;;;;;12.94;100.00;101345.47;4987699;28;20057;-89
2023/08/08 01:48:10;;;;;;;3.50;2.47;;;;;;;13.02;100.00;101357.59;5003389;28;20054;-89
2023/08/08 01:50:37;;;;;;;5.50;2.40;;;;;;;13.03;100.00;101357.34;4998111;28;20033;-89
2023/08/08 01:53:03;;;;;;;6.00;2.78;;;;;;;12.98;100.00;101343.88;4996973;28;20042;-89
2023/08/08 01:55:28;;;;;;;6.90;2.95;;;;;;;13.03;100.00;101343.91;5015476;28;20042;-89
2023/08/08 01:57:54;;;;;;;10.67;2.90;;;;;;;13.03;100.00;101343.91;4995001;28;20034;-89
2023/08/08 02:00:19;;;;;;;6.83;2.90;;;;;;;13.00;100.00;101327.47;4994186;28;20126;-89
2023/08/08 02:02:45;;;;;;;7.88;2.63;;;;;;;13.03;100.00;101329.63;4976508;28;20061;-89
2023/08/08 02:05:10;;;;;;;5.90;2.73;;;;;;;13.01;100.00;101326.38;4993994;28;20045;-89
2023/08/08 02:07:35;;;;;;;10.17;3.00;;;;;;;12.85;100.00;101329.00;4983485;28;20497;-89
2023/08/08 02:10:01;;;;;;;8.83;2.90;;;;;;;12.80;100.00;101333.56;4991438;28;20082;-89
2023/08/08 02:12:28;;;;;;;6.22;2.70;;;;;;;12.63;100.00;101322.94;4996203;28;20104;-89
2023/08/08 02:14:54;;;;;;;9.43;2.97;;;;;;;12.52;100.00;101319.38;5015692;28;20069;-89
2023/08/08 02:17:19;;;;;;;8.87;2.90;;;;;;;12.51;100.00;101323.97;5016571;28;20290;-90
2023/08/08 02:19:44;;;;;;;8.77;2.90;;;;;;;12.39;100.00;101321.47;5016598;28;20034;-89
2023/08/08 02:22:10;;;;;;;7.07;2.87;;;;;;;12.35;100.00;101319.56;5016730;28;20326;-89
2023/08/08 02:24:35;;;;;;;6.97;2.90;;;;;;;12.36;100.00;101313.91;5015508;28;20038;-89
2023/08/08 02:27:00;;;;;;;7.73;2.93;;;;;;;12.34;100.00;101305.28;5015940;28;20034;-89
2023/08/08 02:29:26;;;;;;;6.27;2.77;;;;;;;12.38;100.00;101300.22;5016371;28;20317;-90
2023/08/08 02:31:51;;;;;;;11.23;3.00;;;;;;;12.51;100.00;101310.53;5016081;28;20022;-90
2023/08/08 02:34:16;;;;;;;9.33;3.00;;;;;;;12.50;100.00;101303.53;5015770;28;20027;-89
2023/08/08 02:36:41;;;;;;;10.00;2.83;;;;;;;12.60;100.00;101315.44;5014618;28;20264;-89
2023/08/08 02:39:07;;;;;;;13.27;3.77;;;;;;;12.60;100.00;101308.16;4992598;28;20035;-90
2023/08/08 02:41:32;;;;;;;6.17;3.20;;;;;;;12.65;100.00;101310.06;4992374;28;20065;-89
2023/08/08 02:43:57;;;;;;;9.27;3.27;;;;;;;12.67;100.00;101303.38;4990402;28;20352;-90
2023/08/08 02:46:23;;;;;;;12.90;3.40;;;;;;;12.70;100.00;101302.03;4990981;28;20113;-89
2023/08/08 02:48:48;;;;;;;7.40;3.20;;;;;;;12.70;100.00;101288.59;4991188;28;20027;-89
2023/08/08 02:51:13;;;;;;;8.67;3.30;;;;;;;12.62;100.00;101278.31;4974592;28;20453;-91
2023/08/08 02:53:39;;;;;;;10.93;3.50;;;;;;;12.67;100.00;101287.25;4985038;28;20027;-91
2023/08/08 02:56:04;;;;;;;10.53;2.87;;;;;;;12.65;100.00;101278.63;4972641;28;20274;-91
2023/08/08 02:58:30;;;;;;;9.70;3.23;;;;;;;12.62;100.00;101273.75;4956765;28;20096;-92
2023/08/08 03:00:55;;;;;;;11.37;3.00;;;;;;;12.66;100.00;101276.72;4991281;28;20023;-93
2023/08/08 03:03:20;;;;;;;9.07;3.43;;;;;;;12.61;100.00;101282.06;4992223;28;20034;-92
2023/08/08 03:05:46;;;;;;;9.13;3.23;;;;;;;12.65;100.00;101280.50;4993036;28;20867;-93
2023/08/08 03:08:11;;;;;;;9.30;3.60;;;;;;;12.57;100.00;101288.00;5001126;28;20025;-93
2023/08/08 03:10:37;;;;;;;9.93;3.57;;;;;;;12.63;100.00;101301.44;4965464;28;20037;-95
2023/08/08 03:13:14;;;;;;;13.40;3.60;;;;;;;12.50;100.00;101287.41;4984484;28;20034;-95
2023/08/08 03:15:39;;;;;;;8.80;3.70;;;;;;;12.51;100.00;101298.94;4988329;28;20383;-91
2023/08/08 03:18:05;;;;;;;11.17;3.80;;;;;;;12.49;100.00;101296.53;4990439;28;20026;-93
2023/08/08 03:20:30;;;;;;;11.77;3.50;;;;;;;12.46;100.00;101285.50;5007079;28;20023;-94
2023/08/08 03:22:56;;;;;;;9.63;3.97;;;;;;;12.48;100.00;101278.78;5005120;28;20087;-94
2023/08/08 03:25:21;;;;;;;12.30;3.97;;;;;;;12.56;100.00;101281.00;4979114;28;20003;-94
2023/08/08 03:27:46;;;;;;;9.80;4.00;;;;;;;12.55;100.00;101273.16;4997089;28;20015;-94
2023/08/08 03:30:12;;;;;;;12.47;4.00;;;;;;;12.64;100.00;101281.56;5012437;28;20014;-94
2023/08/08 03:32:39;;;;;;;14.52;3.95;;;;;;;12.61;100.00;101282.06;5016054;28;20014;-94
2023/08/08 03:35:04;;;;;;;14.45;3.80;;;;;;;12.64;100.00;101286.94;5017650;28;20046;-94
2023/08/08 03:37:30;;;;;;;11.82;4.05;;;;;;;12.64;100.00;101281.56;5020223;28;20049;-94
2023/08/08 03:39:55;;;;;;;13.30;3.83;;;;;;;12.50;100.00;101260.53;5017330;28;20047;-93
2023/08/08 03:42:23;;;;;;;13.70;4.00;;;;;;;12.64;100.00;101297.69;5013299;28;20022;-93
2023/08/08 03:44:48;;;;;;;8.30;3.72;;;;;;;12.64;100.00;101292.31;5020125;28;20022;-93
2023/08/08 03:47:13;;;;;;;13.90;4.40;;;;;;;12.55;100.00;101276.69;5019449;28;20428;-93
2023/08/08 03:49:39;;;;;;;10.27;4.25;;;;;;;12.56;100.00;101283.69;5002737;28;20030;-93
2023/08/08 03:52:04;;;;;;;11.27;3.50;;;;;;;12.35;100.00;101263.13;5018371;28;20018;-93
2023/08/08 03:54:30;;;;;;;10.20;4.10;;;;;;;12.21;100.00;101244.78;5020052;28;20042;-93
2023/08/08 03:56:59;;;;;;;15.10;4.70;;;;;;;12.18;100.00;101260.56;5019054;28;20014;-94
2023/08/08 03:59:24;;;;;;;20.83;4.70;;;;;;;11.99;100.00;101244.06;5007618;28;20026;-94
2023/08/08 04:01:49;;;;;;;19.08;4.43;;;;;;;12.03;100.00;101259.41;4988722;28;20041;-94
2023/08/08 04:04:15;;;;;;;13.47;4.40;;;;;;;11.85;100.00;101249.00;5010668;28;20015;-93
2023/08/08 04:06:40;;;;;;;10.63;4.27;;;;;;;11.71;100.00;101245.94;5011618;28;20031;-92
2023/08/08 04:09:06;;;;;;;15.33;4.47;;;;;;;11.69;100.00;101261.47;5008739;28;20034;-92
2023/08/08 04:11:32;;;;;;;13.00;4.32;;;;;;;11.57;100.00;101246.34;5008935;28;20023;-92
2023/08/08 04:13:57;;;;;;;18.07;4.53;;;;;;;11.42;100.00;101233.59;5006039;28;20031;-92
2023/08/08 04:16:22;;;;;;;12.52;4.60;;;;;;;11.34;100.00;101229.50;5008939;28;20023;-93
2023/08/08 04:18:48;;;;;;;21.00;4.47;;;;;;;11.34;100.00;101231.38;5009188;28;20065;-93
2023/08/08 04:21:13;;;;;;;15.30;4.77;;;;;;;11.53;100.00;101269.38;5014698;28;20031;-93
2023/08/08 04:23:38;;;;;;;13.17;4.60;;;;;;;11.36;100.00;101243.47;5017259;28;20029;-93
2023/08/08 04:26:04;;;;;;;14.55;4.97;;;;;;;11.40;100.00;101242.97;4999366;28;20030;-94
2023/08/08 04:28:29;;;;;;;13.60;4.70;;;;;;;11.26;100.00;101235.31;5009636;28;20027;-93
2023/08/08 04:30:54;;;;;;;16.40;5.00;;;;;;;11.24;100.00;101232.09;4998413;28;20041;-94
2023/08/08 04:33:20;;;;;;;12.63;5.30;;;;;;;11.41;100.00;101258.00;4974108;28;20037;-93
2023/08/08 04:35:47;;;;;;;15.80;4.83;;;;;;;11.31;100.00;101239.94;5004884;28;20029;-91
2023/08/08 04:38:14;;;;;;;16.60;4.70;;;;;;;11.62;100.00;101273.25;4996694;28;20038;-95
2023/08/08 04:40:39;;;;;;;13.20;5.10;;;;;;;11.45;100.00;101232.28;4993750;28;20030;-94
2023/08/08 04:43:05;;;;;;;11.23;4.90;;;;;;;11.47;100.00;101230.16;4976339;28;20034;-93
2023/08/08 04:45:30;;;;;;;18.35;5.35;;;;;;;11.73;100.00;101274.16;4974208;28;20033;-94
2023/08/08 04:47:55;;;;;;;17.03;5.40;;;;;;;11.55;100.00;101240.44;4976914;28;20105;-94
2023/08/08 04:50:23;;;;;;;13.47;5.37;;;;;;;11.90;100.00;101282.09;4993454;28;20054;-96
2023/08/08 04:52:48;;;;;;;10.73;5.20;;;;;;;11.86;100.00;101261.38;4978257;28;20018;-96
2023/08/08 04:55:14;;;;;;;16.27;5.67;;;;;;;12.09;100.00;101276.34;4996504;28;20080;-95
2023/08/08 04:57:39;;;;;;;13.20;5.05;;;;;;;12.13;100.00;101282.84;4970662;28;20130;-92
2023/08/08 05:00:08;;;;;;;16.43;5.00;;;;;;;12.01;100.00;101255.34;4984722;28;20034;-93
2023/08/08 05:02:33;;;;;;;18.33;5.45;;;;;;;12.13;100.00;101280.16;4993786;28;20084;-92
2023/08/08 05:05:00;;;;;;;11.73;4.83;;;;;;;12.05;100.00;101269.91;4992366;28;20034;-92
2023/08/08 05:07:26;;;;;;;17.60;5.22;;;;;;;12.13;100.00;101271.31;4992454;28;20022;-92
2023/08/08 05:09:51;;;;;;;22.98;5.32;;;;;;;12.10;100.00;101280.66;4992363;28;20027;-92
2023/08/08 05:12:17;;;;;;;18.20;4.90;;;;;;;12.16;100.00;101284.19;4995578;28;20022;-96
2023/08/08 05:14:42;;;;;;;15.57;4.93;;;;;;;12.15;100.00;101271.81;5001361;28;20582;-96
2023/08/08 05:17:07;;;;;;;18.17;5.70;;;;;;;12.16;100.00;101281.50;5000046;28;20030;-94
2023/08/08 05:19:33;;;;;;;17.23;5.50;;;;;;;12.19;100.00;101268.38;4993098;28;20038;-95
2023/08/08 05:21:59;;;;;;;17.03;5.33;;;;;;;12.54;100.00;101287.69;4996808;28;20037;-95
2023/08/08 05:24:25;;;;;;;20.88;5.40;;;;;;;12.96;100.00;101261.81;4998388;28;20026;-96
2023/08/08 05:26:50;;;;;;;14.33;5.23;;;;;;;13.62;100.00;101271.16;5000546;28;20030;-93
2023/08/08 05:29:16;;;;;;;12.63;5.47;;;;;;;14.16;100.00;101260.94;4980562;28;20033;-94
2023/08/08 05:31:41;;;;;;;18.83;5.13;;;;;;;14.57;100.00;101270.81;4980519;28;20093;-92
2023/08/08 05:34:07;;;;;;;13.67;4.70;;;;;;;14.96;100.00;101286.38;4992220;28;20117;-92
2023/08/08 05:36:32;;;;;;;11.10;4.15;;;;;;;15.08;100.00;101275.28;4979446;28;20061;-95
2023/08/08 05:38:58;;;;;;;13.43;4.60;;;;;;;15.10;100.00;101276.59;4984569;28;20030;-90
2023/08/08 05:41:23;;;;;;;16.00;4.83;;;;;;;15.11;100.00;101290.91;4982040;28;20109;-93
2023/08/08 05:43:49;;;;;;;11.85;4.57;;;;;;;15.05;100.00;101283.91;4985022;28;20525;-93
2023/08/08 05:46:14;;;;;;;11.93;4.63;;;;;;;15.02;100.00;101289.84;4987384;28;20034;-92
2023/08/08 05:48:39;;;;;;;13.37;4.70;;;;;;;15.01;100.00;101293.63;4999494;28;20030;-92
2023/08/08 05:51:05;;;;;;;15.17;4.63;;;;;;;15.03;100.00;101299.56;5015476;28;20038;-93
2023/08/08 05:53:32;;;;;;;16.10;4.32;;;;;;;15.09;100.00;101290.38;4993424;28;20030;-92
2023/08/08 05:55:57;;;;;;;13.43;5.03;;;;;;;15.12;100.00;101292.53;4998526;28;20049;-92
2023/08/08 05:58:22;;;;;;;12.30;3.93;;;;;;;15.10;100.00;101279.28;5007389;28;20038;-84
2023/08/08 06:00:48;;;;;;;15.90;4.77;;;;;;;15.06;100.00;101296.31;4981586;28;20576;-94
2023/08/08 06:03:13;;;;;;;15.30;4.53;;;;;;;14.90;100.00;101291.00;4992091;28;20482;-93
2023/08/08 06:05:39;;;;;;;14.77;4.10;;;;;;;14.74;100.00;101286.72;4991052;28;20038;-92
2023/08/08 06:08:07;;;;;;;11.10;4.07;;;;;;;14.55;100.00;101284.59;4992201;28;20034;-93
2023/08/08 06:10:32;;;;;;;10.02;4.47;;;;;;;14.58;100.00;101289.44;4991653;28;20085;-93
2023/08/08 06:12:57;;;;;;;11.57;4.07;;;;;;;14.61;100.00;101288.88;4989479;28;20543;-91
2023/08/08 06:15:23;;;;;;;16.73;4.73;;;;;;;14.67;100.00;101281.59;4966978;28;20441;-90
2023/08/08 06:17:48;;;;;;;13.30;3.90;;;;;;;14.68;100.00;101284.03;4990773;28;20626;-90
2023/08/08 06:22:49;;;;;;;11.80;3.85;;;;;;;14.56;100.00;101277.31;5886148;23;20340;-91
2023/08/08 06:25:14;;;;;;;11.23;4.10;;;;;;;14.74;100.00;101298.31;4955571;28;20035;-95
2023/08/08 06:27:40;;;;;;;12.15;4.35;;;;;;;14.74;100.00;101281.34;4960862;28;20050;-95
2023/08/08 06:30:09;;;;;;;13.23;4.40;;;;;;;14.89;100.00;101294.78;4963929;28;20102;-95
2023/08/08 06:32:34;;;;;;;13.75;4.43;;;;;;;15.20;100.00;101313.53;4949912;28;21743;-90
2023/08/08 06:35:02;;;;;;;11.10;3.77;;;;;;;15.23;100.00;101287.91;4956919;28;20034;-95
2023/08/08 06:37:28;;;;;;;11.75;3.85;;;;;;;15.53;100.00;101302.28;4953985;28;20038;-95
2023/08/08 06:39:53;;;;;;;11.40;4.00;;;;;;;15.76;100.00;101306.19;4953728;28;20047;-90
2023/08/08 06:42:18;;;;;;;18.00;4.43;;;;;;;15.84;100.00;101308.31;4958524;28;20054;-96
2023/08/08 06:44:44;;;;;;;9.87;3.47;;;;;;;15.86;100.00;101310.75;4960789;28;20023;-92
2023/08/08 06:47:11;;;;;;;11.23;3.80;;;;;;;15.75;100.00;101308.09;4957640;28;20309;-91
2023/08/08 06:49:36;;;;;;;11.85;3.83;;;;;;;15.76;100.00;101306.19;4951982;28;20074;-95
2023/08/08 06:52:02;;;;;;;12.88;3.95;;;;;;;15.94;100.00;101296.63;4952769;28;20027;-94
2023/08/08 06:54:30;;;;;;;11.48;4.10;;;;;;;16.01;100.00;101302.50;4951511;29;20533;-93
2023/08/08 06:56:56;;;;;;;14.80;4.27;;;;;;;16.12;100.00;101305.94;4951116;28;20054;-93
2023/08/08 06:59:22;;;;;;;11.32;3.50;;;;;;;16.29;100.00;101308.22;4952414;29;20043;-92
2023/08/08 07:01:49;;;;;;;10.25;3.55;;;;;;;16.31;100.00;101302.53;4952691;28;20024;-92
2023/08/08 07:04:14;;;;;;;11.30;3.75;;;;;;;16.30;100.00;101304.44;4947502;28;20031;-88
2023/08/08 07:06:39;;;;;;;8.10;3.57;;;;;;;16.43;100.00;101313.75;4952262;29;20020;-88
2023/08/08 07:09:05;;;;;;;8.83;3.27;;;;;;;16.48;100.00;101315.63;4953374;28;20046;-91
2023/08/08 07:11:31;;;;;;;9.93;2.90;;;;;;;16.56;100.00;101316.91;4973710;28;20039;-92
2023/08/08 07:13:57;;;;;;;11.02;3.10;;;;;;;16.58;100.00;101314.72;4958046;29;20113;-93
2023/08/08 07:16:23;;;;;;;10.47;3.10;;;;;;;16.66;100.00;101316.78;4973827;28;20007;-94
2023/08/08 07:21:27;;;;;;;9.73;3.03;;;;;;;16.97;100.00;101308.38;5119842;22;20038;-96
2023/08/08 07:26:31;;;;;;;7.53;3.00;;;;;;;17.05;100.00;101266.31;3964393;23;20114;-94
2023/08/08 07:28:56;;;;;;;10.25;3.40;;;;;;;17.56;100.00;101287.25;5010684;28;20023;-96
2023/08/08 07:31:22;;;;;;;9.47;3.40;;;;;;;17.99;100.00;101297.19;5046307;23;20530;-93
2023/08/08 07:33:47;;;;;;;8.97;2.93;;;;;;;18.01;100.00;101273.28;4989798;28;20282;-96
2023/08/08 07:36:14;;;;;;;7.90;2.77;;;;;;;18.05;100.00;101283.53;4995772;28;20018;-95
2023/08/08 07:38:40;;;;;;;12.57;3.25;;;;;;;18.26;100.00;101314.59;4991602;28;20023;-96
2023/08/08 07:41:24;;;;;;;12.73;3.35;;;;;;;18.10;100.00;101286.97;4997024;28;20072;-95
2023/08/08 07:43:49;;;;;;;11.77;3.00;;;;;;;18.34;100.00;101279.78;4982267;28;20498;-96
2023/08/08 07:46:14;;;;;;;11.43;3.27;;;;;;;18.71;100.00;101296.97;4988377;28;20309;-93
2023/08/08 07:48:40;;;;;;;7.53;3.20;;;;;;;18.86;95.12;101304.03;4978282;28;20027;-90
2023/08/08 07:51:05;;;;;;;8.97;3.27;;;;;;;18.91;97.89;101299.28;4977153;28;20023;-95
2023/08/08 07:53:30;;;;;;;8.63;3.28;;;;;;;19.00;96.00;101307.56;4997758;28;20541;-95
2023/08/08 07:55:56;;;;;;;5.53;2.53;;;;;;;19.11;92.25;101305.44;4995655;28;20035;-95
2023/08/08 07:58:25;;;;;;;9.97;2.90;;;;;;;19.14;92.02;101307.53;4991030;28;20492;-95
2023/08/08 08:00:51;;;;;;;7.53;2.97;;;;;;;19.12;91.18;101308.94;4985674;28;20092;-92
2023/08/08 08:03:17;;;;;;;7.30;3.00;;;;;;;18.97;89.83;101308.16;4973109;28;20037;-91
2023/08/08 08:05:42;;;;;;;7.87;2.33;;;;;;;19.12;87.93;101315.19;4996818;28;20281;-95
2023/08/08 08:08:08;;;;;;;8.97;2.70;;;;;;;19.14;88.25;101295.88;4997515;28;20019;-93
2023/08/08 08:10:33;;;;;;;9.33;2.40;;;;;;;19.44;86.93;101304.47;4997284;28;20022;-94
2023/08/08 08:12:58;;;;;;;8.60;2.90;;;;;;;19.44;86.50;101315.34;4996274;28;20046;-95
2023/08/08 08:15:25;;;;;;;6.47;3.10;;;;;;;19.37;85.72;101305.69;4996755;28;20046;-94
2023/08/08 08:17:50;;;;;;;6.40;2.50;;;;;;;19.40;83.13;101298.81;4996143;28;20088;-92
2023/08/08 08:20:16;;;;;;;7.60;2.90;;;;;;;19.51;85.37;101316.50;4994855;28;20030;-92
2023/08/08 08:22:41;;;;;;;10.50;2.53;;;;;;;19.66;86.29;101311.84;4988373;28;20383;-92
2023/08/08 08:25:10;;;;;;;6.33;2.47;;;;;;;19.78;85.47;101314.78;4976831;28;20030;-91
2023/08/08 08:27:38;;;;;;;7.28;2.80;;;;;;;19.88;86.31;101313.78;4977002;28;20501;-92
2023/08/08 08:30:05;;;;;;;10.75;2.83;;;;;;;19.82;84.74;101321.22;4980268;28;20027;-92
2023/08/08 08:32:34;;;;;;;6.50;2.88;;;;;;;19.72;84.04;101312.50;5001718;28;20061;-90
2023/08/08 08:35:01;;;;;;;7.53;2.60;;;;;;;19.85;83.41;101319.78;4999586;28;20026;-91
2023/08/08 08:37:26;;;;;;;8.93;2.63;;;;;;;19.88;80.25;101313.78;5007119;28;20042;-92
2023/08/08 08:39:52;;;;;;;5.83;2.33;;;;;;;19.89;80.75;101303.72;5008045;28;20019;-91
2023/08/08 08:42:17;;;;;;;7.80;2.63;;;;;;;19.76;80.51;101308.06;4991345;28;20101;-95
2023/08/08 08:44:43;;;;;;;7.10;2.50;;;;;;;19.87;85.32;101312.16;4977791;28;20107;-93
2023/08/08 08:47:12;;;;;;;9.33;3.20;;;;;;;19.95;84.06;101313.34;4976774;28;20038;-93
2023/08/08 08:49:38;;;;;;;9.32;2.78;;;;;;;20.00;84.29;101312.41;4976519;28;20459;-92
2023/08/08 08:52:05;;;;;;;8.90;2.70;;;;;;;20.08;83.69;101290.72;4980527;28;20045;-93
2023/08/08 08:54:31;;;;;;;7.47;2.92;;;;;;;20.46;82.71;101315.84;4996311;28;20073;-93
2023/08/08 08:56:57;;;;;;;8.18;2.83;;;;;;;20.64;79.75;101320.25;4996315;28;20106;-94
2023/08/08 08:59:23;;;;;;;9.67;2.40;;;;;;;20.59;79.45;101312.25;4994970;28;20109;-92
2023/08/08 09:01:50;;;;;;;5.78;1.85;;;;;;;20.49;73.17;101309.78;4994706;28;20603;-91
2023/08/08 09:04:19;;;;;;;5.15;2.17;;;;;;;20.43;74.54;101320.00;4996137;28;20018;-91
2023/08/08 09:06:46;;;;;;;5.88;2.25;;;;;;;20.15;73.70;101316.66;4996735;28;20382;-92
2023/08/08 09:09:13;;;;;;;6.95;2.25;;;;;;;19.93;75.19;101326.44;4995166;28;20050;-91
2023/08/08 09:11:40;;;;;;;4.57;1.92;;;;;;;19.67;76.30;101316.16;4995368;28;20281;-92
2023/08/08 09:14:16;;;;;;;4.00;2.00;;;;;;;19.56;78.66;101315.59;4975909;28;20031;-90
2023/08/08 09:16:43;;;;;;;5.53;1.80;;;;;;;19.58;78.18;101318.81;4975009;28;20061;-94
2023/08/08 09:19:08;;;;;;;6.23;1.97;;;;;;;19.60;78.28;101318.50;4976741;28;20394;-95
2023/08/08 09:21:33;;;;;;;3.47;1.85;;;;;;;19.87;79.83;101319.50;4976181;28;20027;-93
2023/08/08 09:23:59;;;;;;;5.60;1.90;;;;;;;20.18;76.29;101321.47;4995328;28;20134;-91
2023/08/08 09:26:24;;;;;;;6.63;1.97;;;;;;;20.43;75.47;101318.09;4995548;28;20211;-92
2023/08/08 09:28:51;;;;;;;5.77;1.90;;;;;;;20.56;74.47;101318.31;4996205;28;20394;-96
2023/08/08 09:31:16;;;;;;;5.13;2.00;;;;;;;20.73;72.38;101320.28;4991272;28;20026;-92
2023/08/08 09:33:43;;;;;;;6.05;1.90;;;;;;;20.96;72.72;101323.78;4993844;28;20072;-92
2023/08/08 09:36:16;;;;;;;4.88;1.95;;;;;;;21.16;72.96;101333.25;4994848;28;20029;-91
2023/08/08 09:38:41;;;;;;;4.37;1.90;;;;;;;21.20;71.66;101333.41;4977857;28;20034;-91
2023/08/08 09:41:07;;;;;;;5.43;2.27;;;;;;;20.98;70.44;101337.06;4995031;28;20835;-92
2023/08/08 09:43:32;;;;;;;6.37;2.20;;;;;;;21.21;72.60;101335.03;4986913;28;20508;-93
2023/08/08 09:45:58;;;;;;;6.80;2.13;;;;;;;21.40;69.65;101337.47;4989118;28;20064;-93
2023/08/08 09:48:31;;;;;;;4.72;2.10;;;;;;;21.70;71.50;101331.41;4995109;28;20023;-93
2023/08/08 09:50:59;;;;;;;4.35;2.10;;;;;;;22.03;68.58;101328.94;5000512;28;20010;-94
2023/08/08 09:53:26;;;;;;;5.47;2.20;;;;;;;22.17;64.31;101334.22;5005538;28;20140;-91
2023/08/08 09:55:54;;;;;;;5.28;2.50;;;;;;;22.21;66.14;101335.19;4975053;28;20023;-91
2023/08/08 09:58:20;;;;;;;6.03;2.40;;;;;;;21.98;67.28;101336.50;4988417;28;20029;-93
2023/08/08 10:00:45;;;;;;;5.63;2.50;;;;;;;21.76;67.03;101330.09;4982456;28;20106;-92
2023/08/08 10:03:11;;;;;;;6.13;2.20;;;;;;;21.65;65.01;101331.56;4986930;28;20034;-94
2023/08/08 10:05:37;;;;;;;4.83;2.63;;;;;;;21.26;65.94;101326.69;4993870;28;20038;-95
2023/08/08 10:08:02;;;;;;;7.20;2.38;;;;;;;21.41;70.21;101322.72;4988933;28;20049;-91
2023/08/08 10:10:29;;;;;;;5.37;2.47;;;;;;;21.72;67.53;101338.13;4975373;28;20023;-92
2023/08/08 10:12:55;;;;;;;6.97;2.60;;;;;;;21.72;66.05;101332.69;4983519;28;20449;-91
2023/08/08 10:15:26;;;;;;;3.60;2.33;;;;;;;21.42;67.10;101324.31;4993797;28;20054;-92
2023/08/08 10:17:55;;;;;;;5.80;2.10;;;;;;;21.71;68.65;101331.09;4992532;28;20049;-94
2023/08/08 10:20:21;;;;;;;5.53;1.80;;;;;;;22.07;66.52;101329.13;4983288;28;20407;-91
2023/08/08 10:22:47;;;;;;;5.07;1.95;;;;;;;22.47;64.58;101320.66;4993265;28;20057;-91
2023/08/08 10:25:43;;;;;;;5.70;2.10;;;;;;;23.10;60.73;101327.41;4985550;28;20617;-93
2023/08/08 10:28:12;;;;;;;6.28;1.92;;;;;;;22.90;58.11;101332.53;4975821;28;20023;-91
2023/08/08 10:30:52;;;;;;;5.63;1.85;;;;;;;22.43;60.28;101322.47;4994764;28;20029;-92
2023/08/08 10:33:19;;;;;;;4.38;1.80;;;;;;;22.03;60.52;101339.06;4995473;28;20070;-92
2023/08/08 10:36:03;;;;;;;4.20;1.88;;;;;;;21.58;62.64;101332.81;4996540;28;20054;-91
2023/08/08 10:38:43;;;;;;;4.43;1.80;;;;;;;21.12;65.46;101339.66;4982957;28;20066;-92
2023/08/08 10:41:10;;;;;;;3.95;2.00;;;;;;;20.88;64.99;101332.72;4982012;28;20608;-92
2023/08/08 10:43:36;;;;;;;5.85;1.85;;;;;;;21.15;65.57;101322.69;4992732;28;20442;-90
2023/08/08 10:46:02;;;;;;;7.53;2.10;;;;;;;21.50;61.77;101325.44;4994315;28;20028;-90
2023/08/08 10:48:27;;;;;;;4.28;2.20;;;;;;;21.81;60.14;101319.03;4996985;28;20030;-94
2023/08/08 10:51:00;;;;;;;6.07;2.10;;;;;;;21.90;59.80;101321.75;5001735;28;20049;-95
2023/08/08 10:53:26;;;;;;;5.73;2.10;;;;;;;21.66;59.40;101330.44;5008759;28;20281;-94
2023/08/08 10:56:00;;;;;;;4.35;2.00;;;;;;;21.13;63.84;101327.66;5008974;28;20033;-95
2023/08/08 10:58:39;;;;;;;7.95;1.98;;;;;;;20.82;68.21;101329.31;5001461;28;20053;-88
2023/08/08 11:01:12;;;;;;;6.07;2.03;;;;;;;20.60;70.94;101332.09;4992743;28;20534;-87
2023/08/08 11:03:39;;;;;;;4.75;1.70;;;;;;;20.51;69.38;101329.34;4958796;28;20617;-87
2023/08/08 11:06:09;;;;;;;4.43;1.73;;;;;;;20.55;69.81;101319.44;4975311;28;20538;-86
2023/08/08 11:08:37;;;;;;;2.95;2.15;;;;;;;20.86;70.76;101319.41;4985973;28;20038;-86
2023/08/08 11:11:03;;;;;;;5.10;2.20;;;;;;;21.10;68.50;101301.03;5169290;23;20042;-86
2023/08/08 11:13:29;;;;;;;4.73;1.80;;;;;;;21.55;66.48;101316.31;5006875;28;20488;-86
2023/08/08 11:15:54;;;;;;;2.88;1.85;;;;;;;22.06;64.56;101320.13;4994464;28;20022;-86
2023/08/08 11:18:20;;;;;;;7.67;2.13;;;;;;;22.22;63.06;101309.50;5005276;28;20034;-86
2023/08/08 11:20:46;;;;;;;7.57;2.25;;;;;;;22.53;60.99;101302.97;5001541;28;20118;-90